CFV3 weather

Mobil Bistcho Airport
Mobil Bistcho, Alberta, Canada

Public forecast

Using degrees Celsius for public forecast. Weather courtesy of forecast.io.

Closest aviation weather report (METAR) to Mobil Bistcho Airport

Closest report is High Level Airport, 76.5 nm (141.7 km) SE. Retrieved 2019/10/15 02:00 UTC (25 minutes ago):

CYOJ 150200Z 13006KT 10SM FEW021 M01/M04 A3016 RMK SC1 SLP238

Closest aviation forecast (TAF) to Mobil Bistcho Airport

Closest forecast is High Level Airport, 76.5 nm (141.7 km) SE. Retrieved 2019-10-15 01:42 UTC (43 minutes ago):

TAF CYOJ 150038Z 1501/1513 VRB03KT P6SM BKN020 TEMPO 1501/1502 SCT020 FM150200 14006KT P6SM SCT030 TEMPO 1507/1513 BKN030 RMK NXT FCST BY 150700Z